Time;durP1;ratioP1;P1;durP2;ratioP2;P2;SDS_P1;SDS_P2;PMS_P1;PMS_P2;Temp;Humidity;BMP_temperature;BMP_pressure;BME280_temperature;BME280_humidity;BME280_pressure;Samples;Min_cycle;Max_cycle;Signal;HPM_P1;HPM_P2
2022/06/27 00:00:22;;;;;;;;;;;18.20;99.90;;;;;;5037169;28;19928;-78
2022/06/27 00:02:48;;;;;;;;;;;18.00;99.90;;;;;;5032227;28;20840;-77
2022/06/27 00:05:14;;;;;;;;;;;18.10;99.90;;;;;;5035380;28;19939;-78
2022/06/27 00:07:39;;;;;;;;;;;18.10;99.90;;;;;;5015100;28;20065;-80
2022/06/27 00:10:06;;;;;;;;;;;18.20;99.90;;;;;;5018250;28;20442;-79
2022/06/27 00:12:32;;;;;;;;;;;18.10;99.90;;;;;;5047506;28;19928;-78
2022/06/27 00:14:57;;;;;;;;;;;18.20;99.90;;;;;;5035656;28;20053;-80
2022/06/27 00:17:23;;;;;;;;;;;18.00;99.90;;;;;;5036436;28;19942;-79
2022/06/27 00:19:49;;;;;;;;;;;17.90;99.90;;;;;;5016933;28;19928;-80
2022/06/27 00:22:14;;;;;;;;;;;17.80;99.90;;;;;;5048616;28;20471;-80
2022/06/27 00:24:40;;;;;;;;;;;17.80;99.90;;;;;;5051037;28;19952;-79
2022/06/27 00:27:06;;;;;;;;;;;17.80;99.90;;;;;;5046824;28;19928;-79
2022/06/27 00:29:31;;;;;;;;;;;17.80;99.90;;;;;;5030865;28;20709;-79
2022/06/27 00:31:57;;;;;;;;;;;18.00;99.90;;;;;;5035020;28;19928;-80
2022/06/27 00:34:23;;;;;;;;;;;18.10;99.90;;;;;;5051423;28;19928;-79
2022/06/27 00:36:49;;;;;;;;;;;18.20;99.90;;;;;;5033199;28;19989;-80
2022/06/27 00:39:14;;;;;;;;;;;18.20;99.90;;;;;;5017174;28;19928;-80
2022/06/27 00:41:40;;;;;;;;;;;18.20;99.90;;;;;;5035459;28;19928;-79
2022/06/27 00:44:06;;;;;;;;;;;18.00;99.90;;;;;;5014649;28;19946;-79
2022/06/27 00:46:31;;;;;;;;;;;18.00;99.90;;;;;;5033138;28;21370;-79
2022/06/27 00:48:57;;;;;;;;;;;17.80;99.90;;;;;;5008099;28;19928;-79
2022/06/27 00:51:26;;;;;;;;;;;17.70;99.90;;;;;;5050113;28;19932;-79
2022/06/27 00:53:55;;;;;;;;;;;17.80;99.90;;;;;;5037680;28;19928;-80
2022/06/27 00:56:21;;;;;;;;;;;18.00;99.90;;;;;;5018880;28;20651;-79
2022/06/27 00:58:47;;;;;;;;;;;18.10;99.90;;;;;;5033770;28;19928;-79
2022/06/27 01:01:12;;;;;;;;;;;18.10;99.90;;;;;;5049826;28;20100;-80
2022/06/27 01:03:38;;;;;;;;;;;18.20;99.90;;;;;;5035392;28;19938;-79
2022/06/27 01:06:04;;;;;;;;;;;18.20;99.90;;;;;;5055583;28;19935;-80
2022/06/27 01:08:30;;;;;;;;;;;18.20;99.90;;;;;;5050211;28;20437;-80
2022/06/27 01:10:55;;;;;;;;;;;18.00;99.90;;;;;;5035833;28;20433;-79
2022/06/27 01:13:21;;;;;;;;;;;18.00;99.90;;;;;;5032248;28;20038;-80
2022/06/27 01:15:47;;;;;;;;;;;17.90;99.90;;;;;;5037643;28;20146;-80
2022/06/27 01:18:13;;;;;;;;;;;17.70;99.90;;;;;;5036040;28;19932;-79
2022/06/27 01:20:44;;;;;;;;;;;17.60;99.90;;;;;;5034248;28;20175;-80
2022/06/27 01:23:11;;;;;;;;;;;17.70;99.90;;;;;;5054706;28;19936;-80
2022/06/27 01:25:36;;;;;;;;;;;17.70;99.90;;;;;;5054557;28;19928;-79
2022/06/27 01:28:03;;;;;;;;;;;17.70;99.90;;;;;;5057404;28;19935;-80
2022/06/27 01:30:28;;;;;;;;;;;17.60;99.90;;;;;;5053651;28;19986;-80
2022/06/27 01:32:54;;;;;;;;;;;17.50;99.90;;;;;;5031354;28;20022;-80
2022/06/27 01:35:20;;;;;;;;;;;17.60;99.90;;;;;;5033350;28;19936;-80
2022/06/27 01:37:45;;;;;;;;;;;17.80;99.90;;;;;;5036527;28;20494;-80
2022/06/27 01:40:11;;;;;;;;;;;17.80;99.90;;;;;;5032844;28;19928;-80
2022/06/27 01:42:37;;;;;;;;;;;17.80;99.90;;;;;;5034373;28;19925;-79
2022/06/27 01:45:04;;;;;;;;;;;17.90;99.90;;;;;;5021788;28;19982;-78
2022/06/27 01:47:30;;;;;;;;;;;18.00;99.90;;;;;;5057454;28;20420;-79
2022/06/27 01:49:56;;;;;;;;;;;17.80;99.90;;;;;;5049981;28;19928;-79
2022/06/27 01:52:22;;;;;;;;;;;17.70;99.90;;;;;;5052184;28;19928;-79
2022/06/27 01:54:47;;;;;;;;;;;17.80;99.90;;;;;;5033678;28;19979;-79
2022/06/27 01:57:14;;;;;;;;;;;17.80;99.90;;;;;;5034268;28;19939;-79
2022/06/27 01:59:40;;;;;;;;;;;17.80;99.90;;;;;;5037623;28;19995;-79
2022/06/27 02:02:06;;;;;;;;;;;17.70;99.90;;;;;;5057335;28;20030;-79
2022/06/27 02:04:32;;;;;;;;;;;17.90;99.90;;;;;;5033089;28;19979;-79
2022/06/27 02:06:58;;;;;;;;;;;17.80;99.90;;;;;;5055526;28;19934;-79
2022/06/27 02:09:24;;;;;;;;;;;17.80;99.90;;;;;;5035205;28;19935;-79
2022/06/27 02:11:51;;;;;;;;;;;17.60;99.90;;;;;;5059682;28;20410;-79
2022/06/27 02:14:18;;;;;;;;;;;17.60;99.90;;;;;;5031439;28;19991;-79
2022/06/27 02:16:44;;;;;;;;;;;17.70;99.90;;;;;;5035878;28;20582;-79
2022/06/27 02:19:12;;;;;;;;;;;17.80;99.90;;;;;;5038577;28;19924;-79
2022/06/27 02:21:39;;;;;;;;;;;17.90;99.90;;;;;;5017288;28;19932;-79
2022/06/27 02:24:04;;;;;;;;;;;18.00;99.90;;;;;;5038848;28;20015;-79
2022/06/27 02:26:30;;;;;;;;;;;17.90;99.90;;;;;;5036613;28;19981;-79
2022/06/27 02:28:57;;;;;;;;;;;17.90;99.90;;;;;;5039185;28;21591;-80
2022/06/27 02:31:23;;;;;;;;;;;18.00;99.90;;;;;;5062188;28;20034;-80
2022/06/27 02:33:49;;;;;;;;;;;17.90;99.90;;;;;;5036505;28;19985;-81
2022/06/27 02:36:35;;;;;;;;;;;17.90;99.90;;;;;;5035222;28;20409;-82
2022/06/27 02:39:02;;;;;;;;;;;18.00;99.90;;;;;;5034385;28;19928;-83
2022/06/27 02:41:31;;;;;;;;;;;17.90;99.90;;;;;;5037023;28;19952;-83
2022/06/27 02:44:00;;;;;;;;;;;17.90;99.90;;;;;;5032773;28;19998;-84
2022/06/27 02:46:26;;;;;;;;;;;17.90;99.90;;;;;;5034419;28;19961;-84
2022/06/27 02:48:52;;;;;;;;;;;17.50;99.90;;;;;;5036104;28;19940;-84
2022/06/27 02:51:22;;;;;;;;;;;17.60;99.90;;;;;;5036149;28;20212;-87
2022/06/27 02:54:01;;;;;;;;;;;17.80;99.90;;;;;;5023524;28;19928;-86
2022/06/27 02:56:27;;;;;;;;;;;17.90;99.90;;;;;;5020231;28;20914;-86
2022/06/27 02:59:02;;;;;;;;;;;17.70;99.90;;;;;;5032816;28;20689;-87
2022/06/27 03:01:29;;;;;;;;;;;17.70;99.90;;;;;;5039568;28;19929;-86
2022/06/27 03:03:55;;;;;;;;;;;17.60;99.90;;;;;;5020754;28;20729;-86
2022/06/27 03:06:20;;;;;;;;;;;17.50;99.90;;;;;;5023460;28;19928;-87
2022/06/27 03:08:47;;;;;;;;;;;17.40;99.90;;;;;;5038819;28;19935;-86
2022/06/27 03:11:14;;;;;;;;;;;17.60;99.90;;;;;;5034021;28;20023;-86
2022/06/27 03:13:40;;;;;;;;;;;17.40;99.90;;;;;;5053087;28;19927;-87
2022/06/27 03:16:07;;;;;;;;;;;17.20;99.90;;;;;;5014763;28;20539;-86
2022/06/27 03:18:37;;;;;;;;;;;17.10;99.90;;;;;;5031776;28;19928;-86
2022/06/27 03:21:03;;;;;;;;;;;17.30;99.90;;;;;;5037449;28;19939;-86
2022/06/27 03:23:29;;;;;;;;;;;17.20;99.90;;;;;;5038073;28;19929;-86
2022/06/27 03:25:54;;;;;;;;;;;17.20;99.90;;;;;;5036922;28;20441;-85
2022/06/27 03:28:21;;;;;;;;;;;17.10;99.90;;;;;;5018943;28;19935;-84
2022/06/27 03:30:46;;;;;;;;;;;17.00;99.90;;;;;;5035159;28;19928;-86
2022/06/27 03:33:12;;;;;;;;;;;17.00;99.90;;;;;;5016835;28;19982;-86
2022/06/27 03:35:38;;;;;;;;;;;17.10;99.90;;;;;;5017262;28;19986;-87
2022/06/27 03:38:04;;;;;;;;;;;17.20;99.90;;;;;;5039100;28;19928;-87
2022/06/27 03:40:30;;;;;;;;;;;17.20;99.90;;;;;;5031421;28;20582;-88
2022/06/27 03:42:56;;;;;;;;;;;17.20;99.90;;;;;;5033019;28;20320;-88
2022/06/27 03:45:21;;;;;;;;;;;17.10;99.90;;;;;;5015867;28;19928;-86
2022/06/27 03:47:48;;;;;;;;;;;16.90;99.90;;;;;;5038486;28;19935;-87
2022/06/27 03:50:14;;;;;;;;;;;16.90;99.90;;;;;;5037099;28;19932;-87
2022/06/27 03:52:40;;;;;;;;;;;16.80;99.90;;;;;;5007438;28;19928;-87
2022/06/27 03:55:07;;;;;;;;;;;16.80;99.90;;;;;;5036728;28;19928;-88
2022/06/27 03:57:34;;;;;;;;;;;16.90;99.90;;;;;;5035575;28;22125;-87
2022/06/27 04:00:00;;;;;;;;;;;17.00;99.90;;;;;;5036628;28;20850;-87
2022/06/27 04:02:27;;;;;;;;;;;17.00;99.90;;;;;;5020939;28;19932;-87
2022/06/27 04:04:53;;;;;;;;;;;16.70;99.90;;;;;;5029544;28;20566;-88
2022/06/27 04:07:19;;;;;;;;;;;16.70;99.90;;;;;;4989493;28;19929;-86
2022/06/27 04:09:45;;;;;;;;;;;16.60;99.90;;;;;;5008426;28;20418;-87
2022/06/27 04:12:12;;;;;;;;;;;16.60;99.90;;;;;;5024672;28;19924;-86
2022/06/27 04:14:37;;;;;;;;;;;16.40;99.90;;;;;;5020181;28;19929;-86
2022/06/27 04:17:03;;;;;;;;;;;16.50;99.90;;;;;;5021074;28;19936;-85
2022/06/27 04:19:29;;;;;;;;;;;16.40;99.90;;;;;;5037324;28;20804;-87
2022/06/27 04:21:55;;;;;;;;;;;16.30;99.90;;;;;;5019650;28;19993;-86
2022/06/27 04:24:20;;;;;;;;;;;16.40;99.90;;;;;;5005189;28;20388;-86
2022/06/27 04:26:46;;;;;;;;;;;16.40;99.90;;;;;;5022377;28;19932;-87
2022/06/27 04:29:12;;;;;;;;;;;16.40;99.90;;;;;;5029168;28;19963;-87
2022/06/27 04:31:37;;;;;;;;;;;16.60;99.90;;;;;;5004693;28;19976;-87
2022/06/27 04:34:04;;;;;;;;;;;16.60;99.90;;;;;;5003505;28;19951;-86
2022/06/27 04:36:31;;;;;;;;;;;16.50;99.90;;;;;;5007904;28;20877;-87
2022/06/27 04:38:57;;;;;;;;;;;16.70;99.90;;;;;;5021712;28;20787;-87
2022/06/27 04:41:28;;;;;;;;;;;16.60;99.90;;;;;;5025087;28;19928;-87
2022/06/27 04:43:54;;;;;;;;;;;16.70;99.90;;;;;;5004225;28;19929;-87
2022/06/27 04:46:21;;;;;;;;;;;16.80;99.90;;;;;;5007746;28;19928;-88
2022/06/27 04:48:48;;;;;;;;;;;16.90;99.90;;;;;;5020979;28;21337;-90
2022/06/27 04:51:14;;;;;;;;;;;16.60;99.90;;;;;;4992065;28;19932;-87
2022/06/27 04:53:40;;;;;;;;;;;16.80;99.90;;;;;;5009867;28;20031;-87
2022/06/27 04:56:08;;;;;;;;;;;16.80;99.90;;;;;;5006273;28;20425;-87
2022/06/27 04:58:34;;;;;;;;;;;16.80;99.90;;;;;;4986264;28;20060;-89
2022/06/27 05:01:00;;;;;;;;;;;16.70;99.90;;;;;;4989553;28;19979;-88
2022/06/27 05:03:26;;;;;;;;;;;16.50;99.90;;;;;;5001505;28;20051;-87
2022/06/27 05:05:52;;;;;;;;;;;16.70;99.90;;;;;;4985793;28;19929;-86
2022/06/27 05:08:20;;;;;;;;;;;16.70;99.90;;;;;;5005829;28;19935;-86
2022/06/27 05:10:46;;;;;;;;;;;16.90;99.90;;;;;;5003162;28;20015;-86
2022/06/27 05:13:11;;;;;;;;;;;16.60;99.90;;;;;;5005449;28;19932;-86
2022/06/27 05:15:37;;;;;;;;;;;16.50;99.90;;;;;;5000029;28;20421;-86
2022/06/27 05:18:03;;;;;;;;;;;16.60;99.90;;;;;;4948829;28;20745;-86
2022/06/27 05:20:30;;;;;;;;;;;16.80;99.90;;;;;;4973381;28;20398;-85
2022/06/27 05:22:56;;;;;;;;;;;16.70;99.90;;;;;;4967783;28;20744;-85
2022/06/27 05:25:22;;;;;;;;;;;16.70;99.90;;;;;;4968320;28;19936;-85
2022/06/27 05:27:48;;;;;;;;;;;16.70;99.90;;;;;;4967838;28;20274;-85
2022/06/27 05:30:15;;;;;;;;;;;16.50;99.90;;;;;;4966774;28;20007;-85
2022/06/27 05:32:41;;;;;;;;;;;16.50;99.90;;;;;;4983827;28;19935;-85
2022/06/27 05:35:07;;;;;;;;;;;16.50;99.90;;;;;;4965157;28;20024;-86
2022/06/27 05:37:34;;;;;;;;;;;16.50;99.90;;;;;;4970998;28;19929;-85
2022/06/27 05:40:00;;;;;;;;;;;16.60;99.90;;;;;;4988139;28;20027;-84
2022/06/27 05:42:27;;;;;;;;;;;16.70;99.90;;;;;;4977315;28;19929;-84
2022/06/27 05:44:53;;;;;;;;;;;16.70;99.90;;;;;;4988611;28;19929;-83
2022/06/27 05:47:19;;;;;;;;;;;16.80;99.90;;;;;;4987282;28;20102;-83
2022/06/27 05:49:45;;;;;;;;;;;16.80;99.90;;;;;;4990525;28;21067;-84
2022/06/27 05:52:11;;;;;;;;;;;16.90;99.90;;;;;;4990798;28;19933;-83
2022/06/27 05:54:38;;;;;;;;;;;16.80;99.90;;;;;;4990515;28;19961;-83
2022/06/27 05:57:04;;;;;;;;;;;16.50;99.90;;;;;;4988712;28;19933;-84
2022/06/27 05:59:30;;;;;;;;;;;16.70;99.90;;;;;;4994918;28;19987;-83
2022/06/27 06:01:59;;;;;;;;;;;17.00;99.90;;;;;;4996150;28;19929;-83
2022/06/27 06:04:26;;;;;;;;;;;17.00;99.90;;;;;;4995084;28;20306;-83
2022/06/27 06:06:52;;;;;;;;;;;17.10;99.90;;;;;;4993543;28;20015;-82
2022/06/27 06:09:18;;;;;;;;;;;17.20;99.90;;;;;;4995744;28;19929;-83
2022/06/27 06:11:46;;;;;;;;;;;17.00;99.90;;;;;;4994992;28;19933;-82
2022/06/27 06:14:12;;;;;;;;;;;17.10;99.90;;;;;;4985833;28;20387;-83
2022/06/27 06:16:38;;;;;;;;;;;16.80;99.90;;;;;;4980760;28;19933;-83
2022/06/27 06:19:04;;;;;;;;;;;16.70;99.90;;;;;;5007346;28;20005;-82
2022/06/27 06:21:30;;;;;;;;;;;16.70;99.90;;;;;;5016752;28;19929;-84
2022/06/27 06:23:57;;;;;;;;;;;16.80;99.90;;;;;;5009102;28;19998;-83
2022/06/27 06:26:23;;;;;;;;;;;16.70;99.90;;;;;;4992030;28;20052;-83
2022/06/27 06:28:49;;;;;;;;;;;16.70;99.90;;;;;;5007068;28;20484;-83
2022/06/27 06:31:21;;;;;;;;;;;16.80;99.90;;;;;;5018452;28;19973;-82
2022/06/27 06:33:48;;;;;;;;;;;16.70;99.90;;;;;;5013148;28;19929;-83
2022/06/27 06:36:14;;;;;;;;;;;16.70;99.90;;;;;;5014295;28;20409;-82
2022/06/27 06:38:41;;;;;;;;;;;16.80;99.90;;;;;;5014967;28;19951;-82
2022/06/27 06:41:06;;;;;;;;;;;16.70;99.90;;;;;;4998314;28;19936;-82
2022/06/27 06:43:33;;;;;;;;;;;16.80;99.90;;;;;;5018237;28;19928;-82
2022/06/27 06:45:59;;;;;;;;;;;17.00;99.90;;;;;;5010687;28;20092;-83
2022/06/27 06:48:25;;;;;;;;;;;16.80;99.90;;;;;;5009567;28;20911;-83
2022/06/27 06:50:50;;;;;;;;;;;16.80;99.90;;;;;;5007781;28;19929;-82
2022/06/27 06:53:16;;;;;;;;;;;17.00;99.90;;;;;;5014620;28;20424;-82
2022/06/27 06:55:42;;;;;;;;;;;17.00;99.90;;;;;;4997603;28;19939;-82
2022/06/27 06:58:09;;;;;;;;;;;17.00;99.90;;;;;;4996596;28;19928;-82
2022/06/27 07:00:35;;;;;;;;;;;17.20;99.90;;;;;;4995725;28;19929;-82
2022/06/27 07:03:01;;;;;;;;;;;17.30;99.90;;;;;;5010218;28;19976;-82
2022/06/27 07:05:28;;;;;;;;;;;17.30;99.90;;;;;;5001083;28;19929;-82
2022/06/27 07:07:54;;;;;;;;;;;17.30;99.90;;;;;;5022069;28;19929;-81
2022/06/27 07:10:21;;;;;;;;;;;17.20;99.90;;;;;;5022274;28;19929;-82
2022/06/27 07:12:46;;;;;;;;;;;17.30;99.90;;;;;;5019178;28;19971;-83
2022/06/27 07:15:13;;;;;;;;;;;17.30;99.90;;;;;;5014865;28;20063;-82
2022/06/27 07:17:46;;;;;;;;;;;17.40;99.90;;;;;;5025788;28;20433;-81
2022/06/27 07:20:13;;;;;;;;;;;17.40;99.90;;;;;;5042114;28;20094;-82
2022/06/27 07:22:40;;;;;;;;;;;17.40;99.90;;;;;;5043312;28;20061;-82
2022/06/27 07:25:06;;;;;;;;;;;17.50;99.90;;;;;;5040428;28;20007;-83
2022/06/27 07:27:33;;;;;;;;;;;17.50;99.90;;;;;;5043772;28;19928;-84
2022/06/27 07:30:00;;;;;;;;;;;17.50;99.90;;;;;;5040827;28;20419;-86
2022/06/27 07:32:27;;;;;;;;;;;17.50;99.90;;;;;;5036896;28;20348;-87
2022/06/27 07:34:54;;;;;;;;;;;17.60;99.90;;;;;;5023874;28;20531;-86
2022/06/27 07:37:20;;;;;;;;;;;17.50;99.90;;;;;;5033245;28;19928;-87
2022/06/27 07:39:47;;;;;;;;;;;17.60;99.90;;;;;;5023004;28;19932;-87
2022/06/27 07:42:14;;;;;;;;;;;17.80;99.90;;;;;;5034408;28;19929;-87
2022/06/27 07:44:39;;;;;;;;;;;17.90;99.90;;;;;;5018503;28;19929;-87
2022/06/27 07:47:05;;;;;;;;;;;18.00;99.90;;;;;;5021023;28;19987;-85
2022/06/27 07:49:32;;;;;;;;;;;18.10;99.90;;;;;;5021282;28;20444;-86
2022/06/27 07:51:58;;;;;;;;;;;18.10;99.90;;;;;;5036245;28;20630;-86
2022/06/27 07:54:24;;;;;;;;;;;18.20;99.90;;;;;;5040487;28;20019;-85
2022/06/27 07:56:51;;;;;;;;;;;17.70;99.90;;;;;;5035418;28;19959;-87
2022/06/27 07:59:17;;;;;;;;;;;17.80;99.90;;;;;;5022352;28;20030;-86
2022/06/27 08:01:43;;;;;;;;;;;17.80;99.90;;;;;;5041095;28;19933;-85
2022/06/27 08:04:11;;;;;;;;;;;18.00;99.90;;;;;;5031078;28;19933;-85
2022/06/27 08:06:36;;;;;;;;;;;18.20;99.90;;;;;;5032667;28;19938;-84
2022/06/27 08:09:03;;;;;;;;;;;18.30;99.90;;;;;;5026972;28;19932;-84
2022/06/27 08:11:34;;;;;;;;;;;18.30;99.90;;;;;;5028461;28;19928;-84
2022/06/27 08:14:03;;;;;;;;;;;18.10;99.90;;;;;;5034421;28;20737;-84
2022/06/27 08:16:30;;;;;;;;;;;17.90;99.90;;;;;;5019333;28;20595;-84
2022/06/27 08:18:56;;;;;;;;;;;17.90;99.90;;;;;;5030697;28;20287;-83
2022/06/27 08:21:25;;;;;;;;;;;17.70;99.90;;;;;;5040432;28;20313;-83
2022/06/27 08:23:58;;;;;;;;;;;18.00;99.90;;;;;;5035390;28;20561;-83
2022/06/27 08:26:24;;;;;;;;;;;18.10;99.90;;;;;;5037732;28;19978;-83
2022/06/27 08:28:50;;;;;;;;;;;18.10;99.90;;;;;;5032365;28;19986;-83
2022/06/27 08:31:16;;;;;;;;;;;18.10;99.90;;;;;;5043493;28;19931;-83
2022/06/27 08:33:46;;;;;;;;;;;18.10;99.90;;;;;;5015536;28;19963;-83
2022/06/27 08:36:15;;;;;;;;;;;18.40;99.90;;;;;;5031808;28;20023;-83
2022/06/27 08:38:51;;;;;;;;;;;18.50;99.90;;;;;;5015623;28;20359;-82
2022/06/27 08:41:17;;;;;;;;;;;18.60;99.90;;;;;;5035100;28;20415;-83
2022/06/27 08:43:43;;;;;;;;;;;18.40;99.90;;;;;;5035908;28;19928;-83
2022/06/27 08:46:15;;;;;;;;;;;18.50;99.90;;;;;;5033665;28;19935;-83
2022/06/27 08:48:42;;;;;;;;;;;18.50;99.90;;;;;;5034814;28;20659;-83
2022/06/27 08:51:09;;;;;;;;;;;18.50;99.90;;;;;;5037818;28;19936;-82
2022/06/27 08:53:37;;;;;;;;;;;18.30;99.90;;;;;;5022068;28;19979;-82
2022/06/27 08:56:03;;;;;;;;;;;18.30;99.90;;;;;;5024447;28;19990;-82
2022/06/27 08:58:28;;;;;;;;;;;18.10;99.90;;;;;;5040597;28;20035;-83
2022/06/27 09:00:54;;;;;;;;;;;17.90;99.90;;;;;;5041633;28;20007;-82
2022/06/27 09:03:21;;;;;;;;;;;17.90;99.90;;;;;;5031566;28;19933;-83
2022/06/27 09:05:59;;;;;;;;;;;18.00;99.90;;;;;;5031485;28;20573;-82
2022/06/27 09:08:28;;;;;;;;;;;18.10;99.90;;;;;;5039651;28;19928;-82
2022/06/27 09:10:55;;;;;;;;;;;18.20;99.90;;;;;;5040608;28;19940;-82
2022/06/27 09:13:21;;;;;;;;;;;18.30;99.90;;;;;;5026742;28;20015;-82
2022/06/27 09:15:50;;;;;;;;;;;18.40;99.90;;;;;;5039269;28;19929;-82
2022/06/27 09:18:20;;;;;;;;;;;18.20;99.90;;;;;;5038432;28;20386;-82
2022/06/27 09:21:05;;;;;;;;;;;18.10;99.90;;;;;;5040534;28;20760;-82
2022/06/27 09:23:49;;;;;;;;;;;18.30;99.90;;;;;;5028908;28;20003;-81
2022/06/27 09:26:18;;;;;;;;;;;18.20;99.90;;;;;;5031046;28;19936;-81
2022/06/27 09:28:46;;;;;;;;;;;18.20;99.90;;;;;;5029958;28;19965;-83
2022/06/27 09:31:27;;;;;;;;;;;18.00;99.90;;;;;;5029814;28;19929;-83
2022/06/27 09:34:05;;;;;;;;;;;17.90;99.90;;;;;;5035510;28;19976;-82
2022/06/27 09:36:32;;;;;;;;;;;18.00;99.90;;;;;;5035859;28;19958;-83
2022/06/27 09:38:59;;;;;;;;;;;18.20;99.90;;;;;;5034842;28;19993;-82
2022/06/27 09:41:26;;;;;;;;;;;18.30;99.90;;;;;;5006353;28;19933;-83
2022/06/27 09:43:52;;;;;;;;;;;18.30;99.90;;;;;;5033188;28;20516;-82
2022/06/27 09:46:19;;;;;;;;;;;18.50;99.90;;;;;;5003729;28;19928;-82
2022/06/27 09:48:45;;;;;;;;;;;18.60;99.90;;;;;;5034983;28;19932;-81
2022/06/27 09:51:14;;;;;;;;;;;18.60;99.90;;;;;;5042056;28;19986;-81
2022/06/27 09:53:40;;;;;;;;;;;18.70;99.90;;;;;;5044084;28;19929;-82
2022/06/27 09:56:10;;;;;;;;;;;18.80;99.90;;;;;;5040658;28;19986;-81
2022/06/27 09:58:37;;;;;;;;;;;18.80;99.90;;;;;;5044571;28;20012;-81
2022/06/27 10:01:04;;;;;;;;;;;18.80;99.90;;;;;;5041951;28;19954;-82
2022/06/27 10:03:31;;;;;;;;;;;18.50;99.90;;;;;;5040432;28;19932;-82
2022/06/27 10:05:58;;;;;;;;;;;18.70;99.90;;;;;;5043525;28;21993;-82
2022/06/27 10:08:24;;;;;;;;;;;18.70;99.90;;;;;;5025158;28;20432;-81
2022/06/27 10:11:07;;;;;;;;;;;18.60;99.90;;;;;;5038243;28;19982;-81
2022/06/27 10:13:37;;;;;;;;;;;18.60;99.90;;;;;;5025087;28;19979;-82
2022/06/27 10:16:08;;;;;;;;;;;18.60;99.90;;;;;;5046032;28;19932;-81
2022/06/27 10:18:52;;;;;;;;;;;18.90;99.90;;;;;;5035241;28;20416;-81
2022/06/27 10:21:23;;;;;;;;;;;19.00;99.90;;;;;;5042977;28;19924;-81
2022/06/27 10:24:09;;;;;;;;;;;19.10;99.90;;;;;;5043816;28;20425;-80
2022/06/27 10:26:38;;;;;;;;;;;19.00;99.90;;;;;;5030685;28;19936;-81
2022/06/27 10:29:33;;;;;;;;;;;19.10;99.90;;;;;;5042075;28;19967;-81
2022/06/27 10:32:01;;;;;;;;;;;19.10;99.90;;;;;;5060407;28;19939;-82
2022/06/27 10:34:39;;;;;;;;;;;19.30;99.90;;;;;;5041399;28;20816;-81
2022/06/27 10:37:26;;;;;;;;;;;19.50;99.90;;;;;;5039856;28;19928;-81
2022/06/27 10:40:10;;;;;;;;;;;19.60;99.90;;;;;;5044214;28;19932;-80
2022/06/27 10:42:49;;;;;;;;;;;19.80;99.90;;;;;;5043255;28;19933;-80
2022/06/27 10:45:21;;;;;;;;;;;19.70;99.90;;;;;;5039978;28;19944;-80
2022/06/27 10:47:50;;;;;;;;;;;19.70;99.90;;;;;;5041244;28;20393;-80
2022/06/27 10:50:17;;;;;;;;;;;19.80;99.90;;;;;;5042653;28;19925;-80
2022/06/27 10:52:43;;;;;;;;;;;19.80;99.90;;;;;;5041046;28;19928;-80
2022/06/27 10:55:21;;;;;;;;;;;19.70;99.90;;;;;;5045748;28;19956;-80
2022/06/27 10:57:48;;;;;;;;;;;19.60;99.90;;;;;;5041414;28;20449;-80
2022/06/27 11:00:33;;;;;;;;;;;19.70;99.90;;;;;;5041984;28;19937;-80
2022/06/27 11:02:59;;;;;;;;;;;19.70;99.90;;;;;;5031989;28;19928;-80
2022/06/27 11:05:26;;;;;;;;;;;19.70;99.90;;;;;;5034837;28;20744;-79
2022/06/27 11:07:55;;;;;;;;;;;19.70;99.90;;;;;;5037698;28;20418;-80
2022/06/27 11:10:21;;;;;;;;;;;19.80;99.90;;;;;;5042342;28;19928;-80
2022/06/27 11:12:47;;;;;;;;;;;19.90;99.90;;;;;;5040532;28;19950;-80
2022/06/27 11:15:12;;;;;;;;;;;19.80;99.90;;;;;;5041310;28;20386;-80
2022/06/27 11:17:39;;;;;;;;;;;19.80;99.90;;;;;;5031649;28;19975;-79
2022/06/27 11:20:29;;;;;;;;;;;19.80;99.90;;;;;;5032009;28;19928;-80
2022/06/27 11:22:57;;;;;;;;;;;19.80;99.90;;;;;;5033417;28;19928;-80
2022/06/27 11:25:24;;;;;;;;;;;19.80;99.90;;;;;;5036453;28;19928;-80
2022/06/27 11:27:49;;;;;;;;;;;20.10;99.90;;;;;;5039715;28;19968;-80
2022/06/27 11:33:13;;;;;;;;;;;19.90;99.90;;;;;;5044235;28;19928;-79
2022/06/27 11:35:39;;;;;;;;;;;20.00;99.90;;;;;;5041159;28;20015;-79
2022/06/27 11:38:05;;;;;;;;;;;20.00;99.90;;;;;;5034462;28;20649;-79
2022/06/27 11:40:31;;;;;;;;;;;20.10;99.90;;;;;;5014242;28;19963;-79
2022/06/27 11:42:57;;;;;;;;;;;20.10;99.90;;;;;;5028335;28;21086;-79
2022/06/27 11:45:23;;;;;;;;;;;20.30;99.90;;;;;;5015710;28;20378;-79
2022/06/27 11:47:48;;;;;;;;;;;20.20;99.90;;;;;;5029070;28;20722;-79
2022/06/27 11:50:16;;;;;;;;;;;20.10;99.90;;;;;;5037422;28;20324;-80
2022/06/27 11:52:45;;;;;;;;;;;20.00;99.90;;;;;;5034424;28;20000;-80
2022/06/27 11:55:15;;;;;;;;;;;20.00;99.90;;;;;;5027068;28;20595;-80
2022/06/27 11:57:51;;;;;;;;;;;20.00;99.90;;;;;;5035398;28;19932;-80
2022/06/27 12:00:18;;;;;;;;;;;19.90;99.90;;;;;;5032106;28;19932;-78
2022/06/27 12:02:44;;;;;;;;;;;19.90;99.90;;;;;;5032179;28;19998;-80
2022/06/27 12:05:11;;;;;;;;;;;19.90;99.90;;;;;;5010303;28;19928;-79
2022/06/27 12:07:53;;;;;;;;;;;20.00;99.90;;;;;;5029154;28;19929;-79
2022/06/27 12:10:35;;;;;;;;;;;20.00;99.90;;;;;;5029776;28;20491;-79
2022/06/27 12:13:01;;;;;;;;;;;19.90;99.90;;;;;;5032144;28;19935;-79
2022/06/27 12:15:26;;;;;;;;;;;20.00;99.90;;;;;;5033362;28;20309;-80
2022/06/27 12:17:56;;;;;;;;;;;20.10;99.90;;;;;;5025708;28;19990;-80
2022/06/27 12:20:22;;;;;;;;;;;20.00;99.90;;;;;;5032403;28;20370;-80
2022/06/27 12:22:48;;;;;;;;;;;20.00;99.90;;;;;;5032152;28;19979;-80
2022/06/27 12:25:13;;;;;;;;;;;19.90;99.90;;;;;;5031493;28;19932;-80
2022/06/27 12:27:41;;;;;;;;;;;19.90;99.90;;;;;;5030060;28;20339;-80
2022/06/27 12:30:07;;;;;;;;;;;19.90;99.90;;;;;;5030636;28;20047;-80
2022/06/27 12:32:33;;;;;;;;;;;19.80;99.90;;;;;;5034934;28;19936;-80
2022/06/27 12:34:59;;;;;;;;;;;19.80;99.90;;;;;;5036150;28;19935;-80
2022/06/27 12:37:24;;;;;;;;;;;19.80;99.90;;;;;;5030931;28;20829;-80
2022/06/27 12:39:50;;;;;;;;;;;19.40;99.90;;;;;;5037097;28;19928;-80
2022/06/27 12:42:15;;;;;;;;;;;19.20;99.90;;;;;;5013203;28;19929;-80
2022/06/27 12:44:41;;;;;;;;;;;19.40;99.90;;;;;;5038628;28;19981;-80
2022/06/27 12:47:07;;;;;;;;;;;19.60;99.90;;;;;;5029016;28;19928;-80
2022/06/27 12:49:33;;;;;;;;;;;19.60;99.90;;;;;;5039206;28;19982;-80
2022/06/27 12:51:58;;;;;;;;;;;19.50;99.90;;;;;;5043540;28;19951;-80
2022/06/27 12:54:24;;;;;;;;;;;19.20;99.90;;;;;;5040525;28;20271;-79
2022/06/27 12:56:50;;;;;;;;;;;19.30;99.90;;;;;;5036927;28;19936;-79
2022/06/27 12:59:16;;;;;;;;;;;19.00;99.90;;;;;;5040125;28;19964;-79
2022/06/27 13:01:41;;;;;;;;;;;19.00;99.90;;;;;;5037307;28;19929;-80
2022/06/27 13:04:07;;;;;;;;;;;19.00;99.90;;;;;;5039849;28;19978;-80
2022/06/27 13:06:33;;;;;;;;;;;19.10;99.90;;;;;;5036162;28;19928;-80
2022/06/27 13:08:58;;;;;;;;;;;19.30;99.90;;;;;;5041627;28;19939;-79
2022/06/27 13:11:24;;;;;;;;;;;19.40;99.90;;;;;;5035670;28;19928;-80
2022/06/27 13:13:50;;;;;;;;;;;19.40;99.90;;;;;;5020720;28;19929;-80
2022/06/27 13:16:15;;;;;;;;;;;19.50;99.90;;;;;;5034910;28;19929;-80
2022/06/27 13:18:41;;;;;;;;;;;19.40;99.90;;;;;;5037061;28;19981;-80
2022/06/27 13:21:07;;;;;;;;;;;19.30;99.90;;;;;;5040900;28;19928;-80
2022/06/27 13:23:33;;;;;;;;;;;19.20;99.90;;;;;;5037358;28;19935;-80
2022/06/27 13:25:59;;;;;;;;;;;19.30;99.90;;;;;;5041488;28;19935;-80
2022/06/27 13:28:24;;;;;;;;;;;18.80;99.90;;;;;;5038486;28;19929;-80
2022/06/27 13:30:50;;;;;;;;;;;18.70;99.90;;;;;;5037972;28;20992;-80
2022/06/27 13:33:16;;;;;;;;;;;18.50;99.90;;;;;;5031688;28;19998;-80
2022/06/27 13:35:41;;;;;;;;;;;18.50;99.90;;;;;;5037831;28;19979;-79
2022/06/27 13:38:07;;;;;;;;;;;18.40;99.90;;;;;;5028759;28;19968;-80
2022/06/27 13:40:33;;;;;;;;;;;18.50;99.90;;;;;;5032859;28;20048;-79
2022/06/27 13:42:59;;;;;;;;;;;18.50;99.90;;;;;;5035755;28;19943;-79
2022/06/27 13:45:25;;;;;;;;;;;18.50;99.90;;;;;;5040185;28;19983;-80
2022/06/27 13:47:51;;;;;;;;;;;18.70;99.90;;;;;;5036408;28;20629;-79
2022/06/27 13:50:17;;;;;;;;;;;18.80;99.90;;;;;;5038479;28;19936;-79
2022/06/27 13:52:43;;;;;;;;;;;18.60;99.90;;;;;;5041042;28;19929;-80
2022/06/27 13:55:08;;;;;;;;;;;18.70;99.90;;;;;;5037378;28;19928;-79
2022/06/27 13:57:34;;;;;;;;;;;18.80;99.90;;;;;;5038912;28;19936;-79
2022/06/27 14:00:00;;;;;;;;;;;18.90;99.90;;;;;;5040131;28;19928;-79
2022/06/27 14:02:26;;;;;;;;;;;18.80;99.90;;;;;;5041347;28;19928;-80
2022/06/27 14:04:51;;;;;;;;;;;18.80;99.90;;;;;;5021828;28;19933;-80
2022/06/27 14:10:02;;;;;;;;;;;19.00;99.90;;;;;;5039448;28;20218;-80
2022/06/27 14:12:28;;;;;;;;;;;19.10;99.90;;;;;;5039699;28;19979;-80
2022/06/27 14:14:54;;;;;;;;;;;19.10;99.90;;;;;;5035390;28;20429;-81
2022/06/27 14:17:19;;;;;;;;;;;19.20;99.90;;;;;;5021216;28;20390;-79
2022/06/27 14:19:45;;;;;;;;;;;19.10;99.90;;;;;;5024716;28;20516;-79
2022/06/27 14:22:11;;;;;;;;;;;19.10;99.90;;;;;;5027724;28;20023;-79